createdAt,value
2019-03-21T00:01:47.293Z,7.23
2019-03-21T00:04:13.298Z,7.20
2019-03-21T00:06:39.229Z,6.50
2019-03-21T00:09:07.085Z,7.63
2019-03-21T00:11:55.558Z,7.67
2019-03-21T00:14:25.177Z,8.80
2019-03-21T00:16:50.990Z,8.73
2019-03-21T00:19:16.839Z,7.00
2019-03-21T00:21:42.682Z,6.50
2019-03-21T00:24:08.545Z,5.97
2019-03-21T00:26:34.375Z,5.40
2019-03-21T00:29:00.210Z,6.87
2019-03-21T00:31:26.053Z,6.20
2019-03-21T00:33:51.889Z,5.73
2019-03-21T00:36:17.715Z,6.13
2019-03-21T00:38:43.555Z,5.67
2019-03-21T00:41:09.388Z,6.80
2019-03-21T00:43:35.228Z,5.93
2019-03-21T00:46:01.036Z,5.60
2019-03-21T00:48:26.854Z,5.30
2019-03-21T00:50:52.679Z,4.30
2019-03-21T00:53:18.529Z,5.27
2019-03-21T00:55:47.647Z,5.33
2019-03-21T00:58:13.551Z,5.20
2019-03-21T01:00:45.862Z,5.63
2019-03-21T01:03:12.077Z,5.33
2019-03-21T01:05:38.072Z,5.70
2019-03-21T01:08:03.829Z,5.53
2019-03-21T01:10:30.764Z,5.73
2019-03-21T01:12:56.601Z,5.20
2019-03-21T01:15:22.553Z,6.60
2019-03-21T01:17:48.370Z,6.30
2019-03-21T01:20:14.923Z,5.50
2019-03-21T01:22:41.570Z,7.17
2019-03-21T01:25:11.196Z,5.63
2019-03-21T01:27:37.009Z,6.07
2019-03-21T01:30:06.618Z,6.57
2019-03-21T01:32:32.484Z,5.30
2019-03-21T01:34:58.312Z,4.90
2019-03-21T01:37:24.153Z,4.40
2019-03-21T01:39:49.966Z,5.03
2019-03-21T01:42:15.820Z,4.40
2019-03-21T01:44:41.661Z,5.13
2019-03-21T01:47:07.497Z,5.90
2019-03-21T01:49:33.317Z,5.07
2019-03-21T01:51:59.185Z,5.63
2019-03-21T01:54:25.008Z,6.20
2019-03-21T01:56:50.841Z,7.20
2019-03-21T01:59:16.673Z,6.73
2019-03-21T02:01:42.512Z,5.97
2019-03-21T02:04:08.350Z,7.53
2019-03-21T02:06:34.179Z,6.90
2019-03-21T02:09:00.040Z,8.43
2019-03-21T02:11:25.865Z,5.63
2019-03-21T02:13:51.694Z,5.97
2019-03-21T02:16:17.513Z,6.33
2019-03-21T02:18:43.344Z,5.13
2019-03-21T02:21:09.160Z,7.10
2019-03-21T02:23:34.969Z,5.00
2019-03-21T02:26:00.799Z,4.90
2019-03-21T02:28:26.636Z,5.33
2019-03-21T02:30:52.469Z,4.00
2019-03-21T02:33:31.267Z,3.83
2019-03-21T02:35:57.318Z,3.67
2019-03-21T02:38:23.246Z,4.10
2019-03-21T02:40:51.613Z,5.40
2019-03-21T02:43:17.433Z,5.70
2019-03-21T02:45:43.250Z,4.80
2019-03-21T02:48:09.080Z,5.30
2019-03-21T02:50:42.599Z,5.10
2019-03-21T02:53:08.447Z,4.93
2019-03-21T02:55:34.362Z,4.60
2019-03-21T02:58:00.190Z,7.07
2019-03-21T03:00:38.673Z,5.43
2019-03-21T03:03:05.518Z,5.37
2019-03-21T03:05:32.654Z,5.20
2019-03-21T03:07:58.503Z,7.93
2019-03-21T03:10:36.337Z,7.17
2019-03-21T03:13:02.681Z,7.37
2019-03-21T03:15:33.290Z,5.60
2019-03-21T03:17:59.990Z,6.23
2019-03-21T03:20:25.873Z,5.37
2019-03-21T03:22:51.745Z,5.80
2019-03-21T03:25:18.879Z,4.40
2019-03-21T03:27:50.437Z,4.37
2019-03-21T03:30:19.085Z,4.83
2019-03-21T03:32:44.883Z,5.63
2019-03-21T03:35:11.963Z,4.97
2019-03-21T03:37:37.948Z,6.17
2019-03-21T03:40:10.584Z,6.20
2019-03-21T03:42:36.411Z,6.00
2019-03-21T03:45:05.857Z,5.67
2019-03-21T03:47:31.669Z,5.53
2019-03-21T03:49:57.511Z,7.07
2019-03-21T03:52:23.334Z,5.37
2019-03-21T03:54:49.159Z,4.70
2019-03-21T03:57:14.995Z,6.40
2019-03-21T03:59:40.919Z,5.10
2019-03-21T04:02:06.758Z,6.07
2019-03-21T04:04:32.592Z,6.43
2019-03-21T04:06:58.403Z,6.70
2019-03-21T04:09:24.224Z,5.40
2019-03-21T04:11:50.043Z,6.57
2019-03-21T04:14:15.874Z,6.67
2019-03-21T04:16:41.706Z,6.87
2019-03-21T04:19:07.519Z,8.67
2019-03-21T04:21:33.349Z,10.10
2019-03-21T04:23:59.995Z,11.07
2019-03-21T04:26:29.886Z,9.07
2019-03-21T04:28:55.994Z,5.70
2019-03-21T04:31:21.822Z,7.43
2019-03-21T04:33:50.545Z,6.00
2019-03-21T04:36:16.374Z,6.00
2019-03-21T04:38:42.322Z,5.50
2019-03-21T04:41:08.184Z,4.33
2019-03-21T04:43:34.134Z,4.60
2019-03-21T04:46:03.659Z,5.53
2019-03-21T04:48:27.733Z,5.10
2019-03-21T04:50:53.548Z,11.93
2019-03-21T04:53:19.401Z,8.50
2019-03-21T04:55:45.241Z,6.33
2019-03-21T04:58:11.090Z,6.30
2019-03-21T05:00:45.106Z,6.77
2019-03-21T05:03:19.832Z,6.47
2019-03-21T05:05:45.644Z,6.90
2019-03-21T05:08:11.472Z,6.30
2019-03-21T05:10:37.328Z,6.03
2019-03-21T05:13:03.151Z,5.60
2019-03-21T05:15:37.940Z,4.87
2019-03-21T05:18:06.882Z,5.63
2019-03-21T05:20:32.711Z,5.63
2019-03-21T05:22:58.540Z,4.87
2019-03-21T05:25:25.162Z,5.80
2019-03-21T05:27:50.986Z,5.50
2019-03-21T05:30:32.315Z,5.87
2019-03-21T05:32:58.138Z,5.43
2019-03-21T05:35:23.989Z,6.63
2019-03-21T05:37:49.820Z,6.77
2019-03-21T05:40:16.530Z,7.10
2019-03-21T05:42:49.159Z,9.90
2019-03-21T05:45:17.992Z,8.80
2019-03-21T05:47:43.835Z,8.20
2019-03-21T05:50:15.366Z,7.73
2019-03-21T05:52:41.208Z,8.00
2019-03-21T05:55:09.033Z,9.40
2019-03-21T05:57:34.869Z,8.03
2019-03-21T06:00:00.702Z,8.20
2019-03-21T06:02:26.538Z,7.80
2019-03-21T06:04:52.337Z,8.40
2019-03-21T06:07:21.870Z,8.00
2019-03-21T06:09:47.719Z,9.80
2019-03-21T06:12:13.554Z,10.20
2019-03-21T06:14:46.024Z,9.40
2019-03-21T06:17:11.853Z,9.70
2019-03-21T06:19:59.602Z,10.83
2019-03-21T06:22:31.950Z,11.33
2019-03-21T06:25:15.885Z,12.27
2019-03-21T06:27:41.779Z,12.43
2019-03-21T06:30:07.821Z,9.57
2019-03-21T06:32:33.649Z,10.13
2019-03-21T06:34:59.476Z,12.10
2019-03-21T06:37:25.305Z,10.73
2019-03-21T06:39:51.132Z,11.23
2019-03-21T06:42:16.986Z,10.03
2019-03-21T06:44:42.820Z,7.83
2019-03-21T06:47:08.731Z,8.10
2019-03-21T06:49:34.555Z,8.07
2019-03-21T06:52:00.417Z,7.90
2019-03-21T06:54:26.251Z,6.37
2019-03-21T06:56:52.069Z,6.60
2019-03-21T06:59:17.888Z,8.37
2019-03-21T07:01:43.704Z,7.80
2019-03-21T07:04:09.535Z,8.57
2019-03-21T07:06:35.362Z,8.43
2019-03-21T07:09:01.199Z,7.23
2019-03-21T07:11:27.025Z,7.30
2019-03-21T07:13:52.860Z,6.50
2019-03-21T07:16:18.687Z,7.20
2019-03-21T07:18:44.541Z,7.63
2019-03-21T07:21:10.381Z,6.20
2019-03-21T07:23:36.220Z,6.77
2019-03-21T07:26:02.022Z,7.40
2019-03-21T07:28:27.884Z,6.50
2019-03-21T07:30:55.620Z,7.13
2019-03-21T07:33:21.453Z,7.83
2019-03-21T07:35:47.283Z,7.03
2019-03-21T07:38:13.100Z,6.13
2019-03-21T07:40:38.934Z,7.00
2019-03-21T07:43:04.840Z,6.60
2019-03-21T07:45:30.694Z,8.40
2019-03-21T07:47:56.533Z,7.30
2019-03-21T07:50:22.377Z,7.00
2019-03-21T07:52:48.234Z,7.30
2019-03-21T07:55:14.087Z,6.70
2019-03-21T07:57:39.910Z,6.43
2019-03-21T08:00:16.477Z,6.37
2019-03-21T08:02:42.285Z,6.10
2019-03-21T08:05:09.391Z,5.80
2019-03-21T08:07:35.235Z,6.30
2019-03-21T08:10:01.050Z,6.00
2019-03-21T08:12:26.874Z,6.47
2019-03-21T08:14:52.705Z,7.00
2019-03-21T08:17:18.553Z,6.23
2019-03-21T08:19:44.371Z,6.20
2019-03-21T08:22:10.199Z,5.83
2019-03-21T08:24:36.034Z,6.93
2019-03-21T08:27:01.877Z,5.60
2019-03-21T08:29:27.696Z,6.40
2019-03-21T08:31:53.535Z,5.80
2019-03-21T08:34:19.361Z,6.07
2019-03-21T08:36:45.171Z,5.77
2019-03-21T08:39:10.995Z,6.43
2019-03-21T08:41:36.822Z,6.10
2019-03-21T08:44:02.748Z,7.27
2019-03-21T08:46:28.585Z,6.03
2019-03-21T08:48:54.391Z,6.80
2019-03-21T08:51:20.217Z,5.50
2019-03-21T08:53:46.025Z,6.00
2019-03-21T08:56:11.842Z,5.97
2019-03-21T08:58:37.684Z,6.33
2019-03-21T09:01:03.811Z,5.70
2019-03-21T09:03:29.640Z,5.90
2019-03-21T09:05:55.477Z,5.90
2019-03-21T09:08:21.317Z,5.60
2019-03-21T09:10:47.150Z,4.60
2019-03-21T09:13:12.977Z,5.20
2019-03-21T09:15:38.802Z,4.90
2019-03-21T09:18:04.625Z,5.33
2019-03-21T09:20:30.466Z,4.40
2019-03-21T09:22:56.290Z,4.40
2019-03-21T09:25:22.123Z,5.40
2019-03-21T09:27:47.951Z,4.83
2019-03-21T09:30:13.975Z,4.80
2019-03-21T09:32:39.843Z,6.47
2019-03-21T09:35:06.078Z,5.70
2019-03-21T09:37:31.920Z,6.70
2019-03-21T09:39:57.726Z,4.40
2019-03-21T09:42:23.559Z,3.93
2019-03-21T09:44:49.376Z,4.30
2019-03-21T09:47:15.181Z,4.17
2019-03-21T09:49:41.010Z,3.87
2019-03-21T09:52:06.857Z,3.57
2019-03-21T09:54:32.692Z,4.43
2019-03-21T09:56:58.514Z,4.80
2019-03-21T09:59:24.339Z,3.80
2019-03-21T10:01:50.164Z,3.30
2019-03-21T10:04:15.985Z,3.30
2019-03-21T10:06:41.806Z,3.00
2019-03-21T10:09:07.941Z,3.80
2019-03-21T10:11:33.892Z,3.07
2019-03-21T10:13:59.693Z,2.83
2019-03-21T10:16:25.522Z,2.80
2019-03-21T10:18:51.345Z,3.10
2019-03-21T10:21:17.167Z,3.20
2019-03-21T10:23:42.983Z,3.80
2019-03-21T10:26:08.825Z,2.97
2019-03-21T10:28:34.663Z,3.20
2019-03-21T10:31:00.501Z,3.43
2019-03-21T10:33:26.330Z,3.47
2019-03-21T10:35:52.132Z,3.10
2019-03-21T10:38:17.976Z,3.20
2019-03-21T10:40:43.805Z,3.20
2019-03-21T10:43:10.722Z,2.93
2019-03-21T10:45:36.667Z,3.00
2019-03-21T10:48:03.203Z,3.07
2019-03-21T10:50:37.427Z,3.00
2019-03-21T10:53:03.667Z,2.83
2019-03-21T10:55:29.490Z,2.20
2019-03-21T10:57:55.309Z,3.10
2019-03-21T11:00:21.227Z,2.73
2019-03-21T11:02:47.064Z,2.70
2019-03-21T11:05:12.891Z,3.73
2019-03-21T11:07:38.737Z,2.87
2019-03-21T11:10:05.564Z,2.77
2019-03-21T11:12:31.381Z,2.70
2019-03-21T11:14:57.241Z,2.73
2019-03-21T11:17:23.053Z,2.90
2019-03-21T11:19:48.866Z,2.37
2019-03-21T11:22:14.696Z,2.60
2019-03-21T11:24:40.603Z,3.00
2019-03-21T11:27:06.452Z,3.10
2019-03-21T11:29:32.256Z,2.37
2019-03-21T11:31:58.102Z,3.70
2019-03-21T11:34:23.922Z,2.50
2019-03-21T11:36:49.769Z,3.20
2019-03-21T11:39:15.587Z,2.90
2019-03-21T11:41:41.457Z,2.63
2019-03-21T11:44:07.292Z,2.70
2019-03-21T11:46:33.114Z,3.10
2019-03-21T11:48:58.960Z,2.43
2019-03-21T11:51:24.821Z,2.43
2019-03-21T11:53:50.736Z,3.80
2019-03-21T11:56:16.566Z,3.10
2019-03-21T11:58:42.422Z,3.30
2019-03-21T12:01:08.256Z,3.60
2019-03-21T12:03:34.083Z,3.00
2019-03-21T12:05:59.922Z,2.87
2019-03-21T12:08:25.747Z,2.60
2019-03-21T12:10:51.591Z,3.20
2019-03-21T12:13:17.428Z,3.07
2019-03-21T12:15:43.266Z,2.60
2019-03-21T12:18:09.079Z,3.40
2019-03-21T12:20:34.921Z,2.23
2019-03-21T12:23:00.931Z,2.60
2019-03-21T12:25:26.783Z,2.63
2019-03-21T12:27:52.614Z,3.03
2019-03-21T12:30:30.007Z,2.60
2019-03-21T12:32:55.934Z,3.10
2019-03-21T12:35:21.745Z,3.10
2019-03-21T12:37:47.566Z,3.30
2019-03-21T12:40:13.395Z,2.70
2019-03-21T12:42:39.261Z,3.00
2019-03-21T12:45:08.840Z,3.33
2019-03-21T12:47:34.766Z,3.40
2019-03-21T12:50:00.603Z,3.00
2019-03-21T12:52:26.450Z,3.33
2019-03-21T12:54:52.262Z,3.23
2019-03-21T12:57:18.068Z,3.77
2019-03-21T12:59:43.895Z,3.20
2019-03-21T13:02:09.746Z,3.53
2019-03-21T13:04:35.578Z,3.27
2019-03-21T13:07:01.483Z,4.30
2019-03-21T13:09:27.324Z,3.70
2019-03-21T13:11:53.132Z,3.63
2019-03-21T13:14:18.972Z,3.57
2019-03-21T13:16:44.789Z,3.93
2019-03-21T13:19:10.623Z,3.40
2019-03-21T13:21:36.456Z,3.90
2019-03-21T13:24:02.528Z,4.03
2019-03-21T13:26:28.336Z,3.70
2019-03-21T13:28:54.153Z,4.07
2019-03-21T13:31:20.008Z,3.67
2019-03-21T13:33:45.929Z,4.57
2019-03-21T13:36:11.873Z,3.03
2019-03-21T13:38:37.704Z,3.67
2019-03-21T13:41:03.565Z,4.20
2019-03-21T13:43:29.366Z,3.57
2019-03-21T13:45:55.183Z,3.63
2019-03-21T13:48:21.026Z,3.63
2019-03-21T13:50:46.861Z,3.90
2019-03-21T13:53:18.690Z,4.17
2019-03-21T13:55:40.437Z,3.47
2019-03-21T13:58:06.263Z,3.67
2019-03-21T14:00:32.098Z,4.13
2019-03-21T14:02:57.919Z,4.17
2019-03-21T14:05:23.726Z,3.80
2019-03-21T14:07:49.560Z,3.77
2019-03-21T14:10:15.690Z,3.60
2019-03-21T14:12:41.649Z,4.33
2019-03-21T14:15:10.679Z,3.77
2019-03-21T14:17:36.508Z,3.73
2019-03-21T14:20:04.529Z,3.50
2019-03-21T14:22:30.353Z,4.10
2019-03-21T14:24:56.205Z,4.00
2019-03-21T14:27:22.062Z,4.13
2019-03-21T14:29:48.395Z,3.80
2019-03-21T14:32:14.226Z,4.23
2019-03-21T14:34:40.277Z,3.80
2019-03-21T14:37:06.132Z,3.97
2019-03-21T14:39:32.011Z,4.60
2019-03-21T14:41:57.864Z,4.30
2019-03-21T14:44:23.979Z,3.70
2019-03-21T14:46:49.820Z,4.03
2019-03-21T14:49:15.659Z,3.80
2019-03-21T14:51:41.511Z,3.77
2019-03-21T14:54:07.332Z,4.13
2019-03-21T14:56:33.171Z,3.23
2019-03-21T14:58:59.004Z,3.20
2019-03-21T15:01:24.855Z,3.17
2019-03-21T15:03:50.673Z,3.57
2019-03-21T15:06:16.525Z,3.67
2019-03-21T15:08:42.361Z,4.17
2019-03-21T15:11:16.510Z,3.93
2019-03-21T15:13:35.978Z,4.07
2019-03-21T15:16:01.860Z,3.60
2019-03-21T15:18:27.722Z,3.95
2019-03-21T15:20:53.565Z,4.20
2019-03-21T15:23:19.418Z,3.70
2019-03-21T15:25:45.371Z,3.27
2019-03-21T15:28:11.206Z,3.50
2019-03-21T15:30:37.052Z,3.50
2019-03-21T15:33:02.999Z,3.73
2019-03-21T15:35:28.946Z,3.60
2019-03-21T15:37:54.840Z,3.07
2019-03-21T15:40:20.693Z,3.27
2019-03-21T15:42:46.568Z,3.20
2019-03-21T15:45:22.175Z,3.57
2019-03-21T15:47:42.660Z,3.33
2019-03-21T15:50:11.518Z,3.20
2019-03-21T15:52:37.365Z,3.33
2019-03-21T15:55:04.618Z,3.20
2019-03-21T15:57:32.008Z,3.00
2019-03-21T15:59:57.925Z,2.77
2019-03-21T16:02:23.756Z,3.83
2019-03-21T16:04:49.670Z,3.00
2019-03-21T16:07:15.502Z,3.10
2019-03-21T16:09:41.346Z,3.20
2019-03-21T16:12:07.194Z,2.80
2019-03-21T16:14:33.037Z,2.57
2019-03-21T16:16:58.873Z,2.50
2019-03-21T16:19:24.734Z,2.57
2019-03-21T16:21:50.688Z,2.67
2019-03-21T16:24:16.530Z,2.70
2019-03-21T16:26:42.372Z,3.40
2019-03-21T16:29:10.142Z,2.43
2019-03-21T16:31:35.941Z,2.40
2019-03-21T16:34:01.778Z,3.00
2019-03-21T16:36:27.617Z,2.87
2019-03-21T16:38:53.424Z,2.40
2019-03-21T16:41:19.292Z,3.43
2019-03-21T16:43:45.124Z,4.37
2019-03-21T16:46:10.973Z,3.03
2019-03-21T16:48:36.792Z,2.73
2019-03-21T16:51:03.236Z,3.00
2019-03-21T16:53:29.106Z,3.53
2019-03-21T16:55:54.951Z,3.03
2019-03-21T16:58:20.771Z,2.57
2019-03-21T17:00:46.613Z,3.73
2019-03-21T17:03:12.431Z,2.93
2019-03-21T17:05:38.602Z,3.27
2019-03-21T17:08:11.116Z,4.37
2019-03-21T17:10:32.174Z,3.70
2019-03-21T17:12:58.065Z,3.93
2019-03-21T17:15:23.903Z,4.17
2019-03-21T17:17:49.716Z,4.87
2019-03-21T17:20:15.566Z,5.00
2019-03-21T17:22:41.384Z,4.43
2019-03-21T17:25:07.719Z,4.10
2019-03-21T17:27:33.557Z,6.00
2019-03-21T17:29:59.443Z,5.80
2019-03-21T17:32:25.557Z,4.90
2019-03-21T17:34:51.450Z,3.63
2019-03-21T17:37:17.312Z,3.90
2019-03-21T17:39:43.124Z,4.83
2019-03-21T17:42:08.995Z,4.63
2019-03-21T17:44:34.838Z,5.53
2019-03-21T17:47:00.695Z,4.50
2019-03-21T17:49:26.510Z,3.93
2019-03-21T17:51:52.350Z,4.40
2019-03-21T17:54:18.292Z,6.47
2019-03-21T17:56:44.148Z,21.13
2019-03-21T17:59:09.983Z,22.47
2019-03-21T18:01:35.808Z,25.57
2019-03-21T18:04:01.830Z,21.93
2019-03-21T18:06:27.663Z,20.60
2019-03-21T18:08:53.516Z,20.90
2019-03-21T18:11:19.367Z,22.20
2019-03-21T18:13:45.190Z,21.80
2019-03-21T18:16:11.059Z,15.20
2019-03-21T18:18:36.922Z,12.70
2019-03-21T18:21:02.864Z,9.97
2019-03-21T18:23:28.786Z,11.97
2019-03-21T18:25:54.616Z,10.40
2019-03-21T18:28:20.472Z,10.80
2019-03-21T18:30:46.355Z,10.73
2019-03-21T18:33:12.163Z,10.63
2019-03-21T18:35:38.026Z,9.00
2019-03-21T18:38:03.851Z,8.47
2019-03-21T18:40:29.696Z,6.30
2019-03-21T18:42:55.534Z,6.60
2019-03-21T18:45:21.346Z,7.17
2019-03-21T18:47:47.154Z,6.23
2019-03-21T18:50:14.713Z,6.80
2019-03-21T18:52:40.568Z,6.77
2019-03-21T18:55:07.883Z,6.30
2019-03-21T18:57:33.729Z,7.00
2019-03-21T18:59:59.578Z,5.63
2019-03-21T19:02:25.430Z,8.13
2019-03-21T19:04:51.288Z,7.10
2019-03-21T19:07:17.102Z,7.70
2019-03-21T19:09:44.102Z,8.60
2019-03-21T19:12:10.107Z,6.40
2019-03-21T19:14:35.936Z,7.70
2019-03-21T19:17:01.774Z,6.23
2019-03-21T19:19:27.665Z,6.00
2019-03-21T19:21:53.530Z,6.70
2019-03-21T19:24:19.352Z,6.00
2019-03-21T19:26:45.184Z,6.33
2019-03-21T19:29:11.012Z,6.13
2019-03-21T19:31:36.870Z,9.90
2019-03-21T19:34:02.810Z,8.53
2019-03-21T19:36:28.656Z,9.90
2019-03-21T19:38:54.525Z,8.60
2019-03-21T19:41:20.349Z,8.80
2019-03-21T19:43:46.202Z,8.73
2019-03-21T19:46:12.160Z,8.10
2019-03-21T19:48:49.406Z,7.90
2019-03-21T19:51:05.780Z,8.73
2019-03-21T19:53:31.629Z,7.83
2019-03-21T19:56:08.038Z,8.50
2019-03-21T19:58:25.467Z,7.97
2019-03-21T20:00:53.666Z,8.23
2019-03-21T20:03:19.532Z,9.03
2019-03-21T20:05:45.383Z,8.87
2019-03-21T20:08:11.217Z,8.83
2019-03-21T20:10:37.572Z,8.40
2019-03-21T20:13:03.419Z,8.70
2019-03-21T20:15:29.257Z,10.73
2019-03-21T20:17:55.107Z,16.40
2019-03-21T20:20:20.990Z,16.10
2019-03-21T20:22:46.925Z,11.10
2019-03-21T20:25:13.239Z,11.70
2019-03-21T20:27:39.089Z,6.30
2019-03-21T20:30:08.206Z,6.43
2019-03-21T20:32:34.078Z,6.23
2019-03-21T20:34:59.903Z,5.70
2019-03-21T20:37:25.781Z,6.10
2019-03-21T20:39:51.603Z,5.80
2019-03-21T20:42:17.447Z,4.50
2019-03-21T20:44:43.322Z,5.80
2019-03-21T20:47:09.148Z,6.73
2019-03-21T20:49:34.982Z,6.40
2019-03-21T20:52:00.818Z,6.13
2019-03-21T20:54:26.694Z,5.87
2019-03-21T20:56:52.516Z,6.00
2019-03-21T20:59:18.381Z,7.17
2019-03-21T21:01:44.209Z,7.70
2019-03-21T21:04:10.048Z,5.30
2019-03-21T21:06:35.881Z,6.43
2019-03-21T21:09:03.160Z,6.50
2019-03-21T21:11:29.013Z,7.00
2019-03-21T21:13:54.835Z,7.13
2019-03-21T21:16:20.662Z,6.20
2019-03-21T21:18:46.578Z,5.90
2019-03-21T21:21:12.420Z,6.90
2019-03-21T21:23:38.255Z,8.43
2019-03-21T21:26:05.822Z,9.63
2019-03-21T21:28:31.873Z,9.23
2019-03-21T21:30:57.719Z,11.27
2019-03-21T21:33:23.588Z,10.50
2019-03-21T21:35:50.260Z,13.20
2019-03-21T21:38:16.162Z,16.13
2019-03-21T21:40:42.023Z,12.63
2019-03-21T21:43:07.902Z,8.73
2019-03-21T21:45:42.713Z,8.10
2019-03-21T21:48:08.572Z,6.97
2019-03-21T21:50:34.431Z,7.03
2019-03-21T21:53:00.256Z,6.67
2019-03-21T21:55:26.096Z,6.60
2019-03-21T21:57:51.934Z,5.97
2019-03-21T22:00:20.862Z,6.37
2019-03-21T22:02:46.701Z,6.33
2019-03-21T22:05:12.531Z,5.97
2019-03-21T22:07:38.359Z,7.53
2019-03-21T22:10:05.707Z,8.50
2019-03-21T22:12:31.549Z,9.37
2019-03-21T22:14:57.494Z,9.40
2019-03-21T22:17:23.342Z,7.93
2019-03-21T22:19:49.172Z,8.67
2019-03-21T22:22:15.876Z,7.57
2019-03-21T22:24:41.727Z,7.70
2019-03-21T22:27:07.553Z,8.80
2019-03-21T22:29:33.373Z,8.30
2019-03-21T22:31:59.221Z,7.10
2019-03-21T22:34:25.052Z,5.33
2019-03-21T22:36:50.884Z,5.63
2019-03-21T22:39:16.711Z,5.63
2019-03-21T22:41:42.561Z,6.43
2019-03-21T22:44:08.508Z,5.83
2019-03-21T22:46:34.324Z,6.20
2019-03-21T22:49:00.148Z,6.20
2019-03-21T22:51:25.994Z,9.20
2019-03-21T22:53:52.041Z,7.97
2019-03-21T22:56:17.888Z,7.73
2019-03-21T22:58:43.714Z,6.93
2019-03-21T23:01:09.565Z,6.00
2019-03-21T23:03:35.404Z,4.67
2019-03-21T23:06:01.202Z,5.37
2019-03-21T23:08:27.028Z,6.20
2019-03-21T23:10:52.841Z,5.43
2019-03-21T23:13:18.681Z,4.90
2019-03-21T23:15:44.504Z,4.40
2019-03-21T23:18:10.331Z,4.80
2019-03-21T23:20:36.162Z,4.90
2019-03-21T23:23:02.182Z,4.30
2019-03-21T23:25:28.026Z,5.90
2019-03-21T23:27:53.841Z,6.97
2019-03-21T23:30:19.677Z,6.27
2019-03-21T23:32:45.493Z,7.80
2019-03-21T23:35:11.417Z,8.17
2019-03-21T23:37:37.234Z,6.83
2019-03-21T23:40:05.656Z,7.80
2019-03-21T23:42:31.489Z,6.83
2019-03-21T23:44:57.355Z,6.17
2019-03-21T23:47:23.176Z,6.73
2019-03-21T23:49:49.010Z,6.40
2019-03-21T23:52:14.829Z,4.43
2019-03-21T23:54:40.946Z,6.80
2019-03-21T23:57:06.777Z,5.10
2019-03-21T23:59:32.597Z,5.03
